createdAt,value
2022-11-12T00:00:21.470Z,11
2022-11-12T00:05:37.955Z,10
2022-11-12T00:10:54.454Z,10
2022-11-12T00:16:10.928Z,9
2022-11-12T00:21:27.381Z,9
2022-11-12T00:26:43.832Z,8
2022-11-12T00:32:01.793Z,7
2022-11-12T00:38:55.927Z,6
2022-11-12T00:44:12.390Z,10
2022-11-12T00:49:28.845Z,9
2022-11-12T00:54:45.336Z,8
2022-11-12T01:00:01.799Z,5
2022-11-12T01:05:18.266Z,6
2022-11-12T01:10:34.764Z,6
2022-11-12T01:15:51.176Z,5
2022-11-12T01:21:07.594Z,5
2022-11-12T01:26:24.034Z,4
2022-11-12T01:31:40.489Z,5
2022-11-12T01:36:56.906Z,5
2022-11-12T01:42:13.337Z,4
2022-11-12T01:47:29.775Z,4
2022-11-12T01:52:46.218Z,4
2022-11-12T01:58:02.618Z,4
2022-11-12T02:03:19.063Z,5
2022-11-12T02:08:35.545Z,3
2022-11-12T02:13:52.019Z,3
2022-11-12T02:19:08.470Z,4
2022-11-12T02:24:24.897Z,4
2022-11-12T02:29:41.337Z,4
2022-11-12T02:34:57.883Z,3
2022-11-12T02:40:14.345Z,4
2022-11-12T02:45:30.782Z,3
2022-11-12T02:50:47.201Z,4
2022-11-12T02:56:03.640Z,3
2022-11-12T03:01:20.162Z,3
2022-11-12T03:06:36.567Z,4
2022-11-12T03:11:53.002Z,4
2022-11-12T03:17:09.467Z,3
2022-11-12T03:22:25.954Z,3
2022-11-12T03:27:42.364Z,4
2022-11-12T03:32:58.806Z,3
2022-11-12T03:38:15.245Z,3
2022-11-12T03:43:31.718Z,3
2022-11-12T03:48:48.181Z,2
2022-11-12T03:54:04.636Z,3
2022-11-12T03:59:21.073Z,3
2022-11-12T04:04:37.512Z,4
2022-11-12T04:09:53.963Z,4
2022-11-12T04:15:10.449Z,3
2022-11-12T04:20:26.875Z,3
2022-11-12T04:25:43.311Z,2
2022-11-12T04:30:59.778Z,3
2022-11-12T04:36:16.204Z,3
2022-11-12T04:41:32.624Z,3
2022-11-12T04:46:49.055Z,2
2022-11-12T04:52:05.520Z,3
2022-11-12T04:57:22.056Z,3
2022-11-12T05:02:38.485Z,3
2022-11-12T05:07:54.919Z,4
2022-11-12T05:13:11.314Z,4
2022-11-12T05:18:28.108Z,5
2022-11-12T05:23:44.249Z,4
2022-11-12T05:29:08.415Z,5
2022-11-12T05:34:22.965Z,4
2022-11-12T05:39:36.170Z,5
2022-11-12T05:44:52.608Z,4
2022-11-12T05:50:09.080Z,6
2022-11-12T05:55:25.545Z,4
2022-11-12T06:00:41.986Z,5
2022-11-12T06:05:58.428Z,6
2022-11-12T06:11:14.894Z,5
2022-11-12T06:16:31.384Z,8
2022-11-12T06:21:47.800Z,6
2022-11-12T06:27:04.291Z,7
2022-11-12T06:32:20.727Z,7
2022-11-12T06:37:37.187Z,8
2022-11-12T06:42:53.678Z,6
2022-11-12T06:48:10.122Z,8
2022-11-12T06:53:26.564Z,9
2022-11-12T06:58:43.017Z,10
2022-11-12T07:03:59.455Z,10
2022-11-12T07:09:15.644Z,15
2022-11-12T07:14:32.141Z,14
2022-11-12T07:19:48.609Z,15
2022-11-12T07:25:05.109Z,16
2022-11-12T07:30:21.555Z,19
2022-11-12T07:35:38.036Z,21
2022-11-12T07:40:54.506Z,23
2022-11-12T07:51:27.443Z,25
2022-11-12T07:56:43.913Z,25
2022-11-12T08:02:01.804Z,26
2022-11-12T08:07:18.369Z,27
2022-11-12T08:12:34.792Z,25
2022-11-12T08:17:51.000Z,26
2022-11-12T08:23:07.527Z,25
2022-11-12T08:28:24.313Z,25
2022-11-12T08:33:40.533Z,28
2022-11-12T08:38:57.034Z,29
2022-11-12T08:44:14.022Z,34
2022-11-12T08:49:30.490Z,32
2022-11-12T08:54:46.991Z,33
2022-11-12T09:00:03.479Z,33
2022-11-12T09:05:19.961Z,32
2022-11-12T09:10:36.471Z,33
2022-11-12T09:15:52.912Z,31
2022-11-12T09:21:09.359Z,28
2022-11-12T09:26:25.848Z,32
2022-11-12T09:31:42.341Z,27
2022-11-12T09:36:58.828Z,29
2022-11-12T09:42:15.302Z,29
2022-11-12T09:47:31.752Z,30
2022-11-12T09:52:48.242Z,26
2022-11-12T09:58:04.737Z,23
2022-11-12T10:03:21.175Z,21
2022-11-12T10:08:37.658Z,22
2022-11-12T10:13:54.115Z,20
2022-11-12T10:19:10.599Z,21
2022-11-12T10:24:27.052Z,18
2022-11-12T10:29:43.466Z,17
2022-11-12T10:34:59.892Z,18
2022-11-12T10:40:16.357Z,18
2022-11-12T10:45:32.831Z,19
2022-11-12T10:50:49.319Z,17
2022-11-12T10:56:05.825Z,17
2022-11-12T11:01:22.319Z,17
2022-11-12T11:06:38.760Z,17
2022-11-12T11:11:55.221Z,16
2022-11-12T11:17:11.635Z,18
2022-11-12T11:22:28.043Z,15
2022-11-12T11:27:44.497Z,15
2022-11-12T11:33:01.867Z,16
2022-11-12T11:38:18.324Z,14
2022-11-12T11:43:34.818Z,15
2022-11-12T11:48:51.286Z,14
2022-11-12T11:54:07.759Z,14
2022-11-12T11:59:24.237Z,14
2022-11-12T12:04:41.421Z,14
2022-11-12T12:09:58.056Z,12
2022-11-12T12:15:14.519Z,13
2022-11-12T12:20:30.957Z,13
2022-11-12T12:25:47.441Z,13
2022-11-12T12:31:03.869Z,15
2022-11-12T12:36:20.292Z,14
2022-11-12T12:41:36.777Z,16
2022-11-12T12:46:53.239Z,17
2022-11-12T12:52:09.644Z,16
2022-11-12T12:57:26.050Z,19
2022-11-12T13:02:42.506Z,17
2022-11-12T13:07:58.983Z,20
2022-11-12T13:13:15.185Z,23
2022-11-12T13:18:31.625Z,22
2022-11-12T13:23:48.238Z,20
2022-11-12T13:29:04.680Z,20
2022-11-12T13:34:21.175Z,21
2022-11-12T13:39:37.677Z,20
2022-11-12T13:44:56.228Z,21
2022-11-12T13:50:10.373Z,21
2022-11-12T13:55:26.808Z,21
2022-11-12T14:00:43.300Z,20
2022-11-12T14:06:01.795Z,20
2022-11-12T14:11:18.224Z,19
2022-11-12T14:16:34.858Z,20
2022-11-12T14:21:51.023Z,18
2022-11-12T14:27:08.089Z,21
2022-11-12T14:32:24.572Z,20
2022-11-12T14:37:43.647Z,21
2022-11-12T14:42:57.534Z,17
2022-11-12T14:48:14.001Z,18
2022-11-12T14:53:30.711Z,19
2022-11-12T14:58:46.888Z,18
2022-11-12T15:04:03.346Z,17
2022-11-12T15:09:19.777Z,15
2022-11-12T15:14:35.981Z,20
2022-11-12T15:19:52.412Z,16
2022-11-12T15:25:08.967Z,16
2022-11-12T15:30:25.343Z,15
2022-11-12T15:35:41.777Z,14
2022-11-12T15:40:58.213Z,15
2022-11-12T15:46:14.638Z,15
2022-11-12T15:51:31.134Z,15
2022-11-12T15:56:47.560Z,14
2022-11-12T16:02:04.033Z,14
2022-11-12T16:07:20.574Z,15
2022-11-12T16:12:36.969Z,14
2022-11-12T16:17:53.457Z,15
2022-11-12T16:23:09.895Z,14
2022-11-12T16:28:31.571Z,16
2022-11-12T16:33:42.800Z,16
2022-11-12T16:38:59.292Z,15
2022-11-12T16:44:15.706Z,18
2022-11-12T16:49:38.284Z,18
2022-11-12T16:54:48.623Z,19
2022-11-12T17:00:05.087Z,19
2022-11-12T17:05:21.514Z,21
2022-11-12T17:10:38.009Z,20
2022-11-12T17:15:54.476Z,22
2022-11-12T17:21:10.996Z,22
2022-11-12T17:26:27.484Z,25
2022-11-12T17:31:43.989Z,28
2022-11-12T17:37:01.824Z,27
2022-11-12T17:42:18.276Z,29
2022-11-12T17:47:39.346Z,25
2022-11-12T17:52:51.267Z,31
2022-11-12T17:58:07.723Z,30
2022-11-12T18:03:24.359Z,31
2022-11-12T18:08:40.701Z,36
2022-11-12T18:13:57.232Z,33
2022-11-12T18:19:13.700Z,32
2022-11-12T18:24:30.170Z,34
2022-11-12T18:29:46.652Z,33
2022-11-12T18:35:03.199Z,31
2022-11-12T18:40:19.689Z,31
2022-11-12T18:45:36.176Z,29
2022-11-12T18:50:52.684Z,32
2022-11-12T18:56:09.322Z,32
2022-11-12T19:01:25.805Z,30
2022-11-12T19:06:42.343Z,28
2022-11-12T19:11:58.737Z,24
2022-11-12T19:17:15.196Z,25
2022-11-12T19:22:32.253Z,27
2022-11-12T19:27:48.980Z,24
2022-11-12T19:33:05.416Z,22
2022-11-12T19:38:21.837Z,21
2022-11-12T19:43:38.311Z,20
2022-11-12T19:48:54.758Z,16
2022-11-12T19:54:12.207Z,16
2022-11-12T19:59:27.637Z,12
2022-11-12T20:04:44.128Z,11
2022-11-12T20:10:01.859Z,13
2022-11-12T20:15:18.337Z,14
2022-11-12T20:20:34.827Z,18
2022-11-12T20:25:51.246Z,15
2022-11-12T20:31:07.715Z,20
2022-11-12T20:36:24.206Z,20
2022-11-12T20:41:40.655Z,20
2022-11-12T20:46:57.096Z,18
2022-11-12T20:52:13.554Z,19
2022-11-12T20:57:30.010Z,18
2022-11-12T21:02:46.502Z,20
2022-11-12T21:08:02.974Z,21
2022-11-12T21:13:19.435Z,20
2022-11-12T21:18:35.954Z,20
2022-11-12T21:23:52.473Z,21
2022-11-12T21:29:08.919Z,18
2022-11-12T21:34:25.341Z,19
2022-11-12T21:39:41.796Z,19
2022-11-12T21:44:58.237Z,20
2022-11-12T21:50:15.288Z,21
2022-11-12T21:55:31.754Z,17
2022-11-12T22:00:48.248Z,20
2022-11-12T22:06:04.706Z,18
2022-11-12T22:11:21.172Z,20
2022-11-12T22:16:37.656Z,18
2022-11-12T22:21:54.150Z,18
2022-11-12T22:27:10.661Z,17
2022-11-12T22:32:28.171Z,16
2022-11-12T22:37:44.787Z,14
2022-11-12T22:43:01.282Z,15
2022-11-12T22:48:17.751Z,14
2022-11-12T22:53:34.216Z,14
2022-11-12T22:58:50.700Z,13
2022-11-12T23:04:07.183Z,11
2022-11-12T23:09:23.621Z,10
2022-11-12T23:14:40.124Z,11
2022-11-12T23:19:56.619Z,11
2022-11-12T23:25:13.041Z,8
2022-11-12T23:30:29.535Z,10
2022-11-12T23:35:45.992Z,10
2022-11-12T23:41:02.407Z,10
2022-11-12T23:46:18.839Z,10
2022-11-12T23:51:35.304Z,9
2022-11-12T23:56:51.790Z,10
